EmailTwitter


Surface observations / United Kingdom / EGTE (03839)

Regions: Quebec | Canada | USA | Europe | France | UK | Elsewhere
Station
Display
Info & Location for EGTE (03839) | Help decoding METAR

Weather Conditions observed on 2017/09/22 at 14:50 UTC at EXETER AIRPORT, UK (EGTE)

Sky conditions: variable clouds.

Temperature: 16.0 Celsius.

Dewpoint: 12.0 Celsius.

Relative Humidity: 77%

Winds: South-southwest at 22 km/h or 12 knots.

Mean Sea level Pressure: 102.00 kilopascals.

Horizontal visibility: 6.21 statute miles or 9.94 kilometers.

Coded METAR:

EGTE 221450Z 20012KT 9999 SCT025 16/12 Q1020=